sensor_id;sensor_type;location;lat;lon;timestamp;temperature;humidity
30371;DHT22;17164;48.590;11.410;2023-08-24T00:01:06;20.00;99.90
30371;DHT22;17164;48.590;11.410;2023-08-24T00:03:33;20.00;99.90
30371;DHT22;17164;48.590;11.410;2023-08-24T00:05:58;20.00;99.90
30371;DHT22;17164;48.590;11.410;2023-08-24T00:08:24;20.00;99.90
30371;DHT22;17164;48.590;11.410;2023-08-24T00:10:50;20.00;99.90
30371;DHT22;17164;48.590;11.410;2023-08-24T00:13:15;19.90;99.90
30371;DHT22;17164;48.590;11.410;2023-08-24T00:15:41;19.90;99.90
30371;DHT22;17164;48.590;11.410;2023-08-24T00:18:07;19.90;99.90
30371;DHT22;17164;48.590;11.410;2023-08-24T00:20:33;19.90;99.90
30371;DHT22;17164;48.590;11.410;2023-08-24T00:22:59;19.80;99.90
30371;DHT22;17164;48.590;11.410;2023-08-24T00:25:25;19.80;99.90
30371;DHT22;17164;48.590;11.410;2023-08-24T00:27:52;19.80;99.90
30371;DHT22;17164;48.590;11.410;2023-08-24T00:30:18;19.80;99.90
30371;DHT22;17164;48.590;11.410;2023-08-24T00:32:44;19.70;99.90
30371;DHT22;17164;48.590;11.410;2023-08-24T00:35:09;19.70;99.90
30371;DHT22;17164;48.590;11.410;2023-08-24T00:37:36;19.70;99.90
30371;DHT22;17164;48.590;11.410;2023-08-24T00:40:03;19.70;99.90
30371;DHT22;17164;48.590;11.410;2023-08-24T00:42:31;19.70;99.90
30371;DHT22;17164;48.590;11.410;2023-08-24T00:44:57;19.70;99.90
30371;DHT22;17164;48.590;11.410;2023-08-24T00:47:24;19.70;99.90
30371;DHT22;17164;48.590;11.410;2023-08-24T00:49:50;19.70;99.90
30371;DHT22;17164;48.590;11.410;2023-08-24T00:52:16;19.60;99.90
30371;DHT22;17164;48.590;11.410;2023-08-24T00:54:43;19.60;99.90
30371;DHT22;17164;48.590;11.410;2023-08-24T00:57:08;19.50;99.90
30371;DHT22;17164;48.590;11.410;2023-08-24T00:59:35;19.50;99.90
30371;DHT22;17164;48.590;11.410;2023-08-24T01:02:02;19.50;99.90
30371;DHT22;17164;48.590;11.410;2023-08-24T01:04:27;19.50;99.90
30371;DHT22;17164;48.590;11.410;2023-08-24T01:06:53;19.40;99.90
30371;DHT22;17164;48.590;11.410;2023-08-24T01:09:19;19.50;99.90
30371;DHT22;17164;48.590;11.410;2023-08-24T01:12:05;19.50;99.90
30371;DHT22;17164;48.590;11.410;2023-08-24T01:14:58;19.50;99.90
30371;DHT22;17164;48.590;11.410;2023-08-24T01:17:30;19.40;99.90
30371;DHT22;17164;48.590;11.410;2023-08-24T01:19:58;19.40;99.90
30371;DHT22;17164;48.590;11.410;2023-08-24T01:22:31;19.40;99.90
30371;DHT22;17164;48.590;11.410;2023-08-24T01:25:06;19.30;99.90
30371;DHT22;17164;48.590;11.410;2023-08-24T01:27:34;19.30;99.90
30371;DHT22;17164;48.590;11.410;2023-08-24T01:30:03;19.30;99.90
30371;DHT22;17164;48.590;11.410;2023-08-24T01:32:33;19.20;99.90
30371;DHT22;17164;48.590;11.410;2023-08-24T01:35:01;19.20;99.90
30371;DHT22;17164;48.590;11.410;2023-08-24T01:37:26;19.10;99.90
30371;DHT22;17164;48.590;11.410;2023-08-24T01:40:03;19.10;99.90
30371;DHT22;17164;48.590;11.410;2023-08-24T01:45:18;19.10;99.90
30371;DHT22;17164;48.590;11.410;2023-08-24T01:47:46;19.10;99.90
30371;DHT22;17164;48.590;11.410;2023-08-24T01:50:13;19.10;99.90
30371;DHT22;17164;48.590;11.410;2023-08-24T01:52:40;19.10;99.90
30371;DHT22;17164;48.590;11.410;2023-08-24T01:55:05;19.10;99.90
30371;DHT22;17164;48.590;11.410;2023-08-24T01:57:31;19.10;99.90
30371;DHT22;17164;48.590;11.410;2023-08-24T01:59:57;19.10;99.90
30371;DHT22;17164;48.590;11.410;2023-08-24T02:02:25;19.00;99.90
30371;DHT22;17164;48.590;11.410;2023-08-24T02:04:50;19.00;99.90
30371;DHT22;17164;48.590;11.410;2023-08-24T02:07:16;19.00;99.90
30371;DHT22;17164;48.590;11.410;2023-08-24T02:09:42;18.90;99.90
30371;DHT22;17164;48.590;11.410;2023-08-24T02:12:07;18.90;99.90
30371;DHT22;17164;48.590;11.410;2023-08-24T02:14:33;18.90;99.90
30371;DHT22;17164;48.590;11.410;2023-08-24T02:16:59;18.90;99.90
30371;DHT22;17164;48.590;11.410;2023-08-24T02:19:24;18.90;99.90
30371;DHT22;17164;48.590;11.410;2023-08-24T02:21:50;18.90;99.90
30371;DHT22;17164;48.590;11.410;2023-08-24T02:24:16;18.80;99.90
30371;DHT22;17164;48.590;11.410;2023-08-24T02:26:41;18.80;99.90
30371;DHT22;17164;48.590;11.410;2023-08-24T02:29:07;18.80;99.90
30371;DHT22;17164;48.590;11.410;2023-08-24T02:31:32;18.80;99.90
30371;DHT22;17164;48.590;11.410;2023-08-24T02:33:58;18.70;99.90
30371;DHT22;17164;48.590;11.410;2023-08-24T02:36:24;18.70;99.90
30371;DHT22;17164;48.590;11.410;2023-08-24T02:38:49;18.70;99.90
30371;DHT22;17164;48.590;11.410;2023-08-24T02:41:15;18.70;99.90
30371;DHT22;17164;48.590;11.410;2023-08-24T02:43:41;18.70;99.90
30371;DHT22;17164;48.590;11.410;2023-08-24T02:46:08;18.70;99.90
30371;DHT22;17164;48.590;11.410;2023-08-24T02:48:34;18.60;99.90
30371;DHT22;17164;48.590;11.410;2023-08-24T02:51:00;18.60;99.90
30371;DHT22;17164;48.590;11.410;2023-08-24T02:53:26;18.60;99.90
30371;DHT22;17164;48.590;11.410;2023-08-24T02:55:53;18.60;99.90
30371;DHT22;17164;48.590;11.410;2023-08-24T02:58:19;18.60;99.90
30371;DHT22;17164;48.590;11.410;2023-08-24T03:00:45;18.60;99.90
30371;DHT22;17164;48.590;11.410;2023-08-24T03:03:13;18.50;99.90
30371;DHT22;17164;48.590;11.410;2023-08-24T03:05:38;18.50;99.90
30371;DHT22;17164;48.590;11.410;2023-08-24T03:08:04;18.50;99.90
30371;DHT22;17164;48.590;11.410;2023-08-24T03:10:31;18.50;99.90
30371;DHT22;17164;48.590;11.410;2023-08-24T03:12:57;18.50;99.90
30371;DHT22;17164;48.590;11.410;2023-08-24T03:15:22;18.40;99.90
30371;DHT22;17164;48.590;11.410;2023-08-24T03:17:48;18.50;99.90
30371;DHT22;17164;48.590;11.410;2023-08-24T03:20:13;18.50;99.90
30371;DHT22;17164;48.590;11.410;2023-08-24T03:22:39;18.50;99.90
30371;DHT22;17164;48.590;11.410;2023-08-24T03:25:06;18.40;99.90
30371;DHT22;17164;48.590;11.410;2023-08-24T03:27:31;18.40;99.90
30371;DHT22;17164;48.590;11.410;2023-08-24T03:29:57;18.40;99.90
30371;DHT22;17164;48.590;11.410;2023-08-24T03:32:24;18.40;99.90
30371;DHT22;17164;48.590;11.410;2023-08-24T03:34:49;18.40;99.90
30371;DHT22;17164;48.590;11.410;2023-08-24T03:37:15;18.30;99.90
30371;DHT22;17164;48.590;11.410;2023-08-24T03:39:41;18.30;99.90
30371;DHT22;17164;48.590;11.410;2023-08-24T03:42:06;18.30;99.90
30371;DHT22;17164;48.590;11.410;2023-08-24T03:44:32;18.30;99.90
30371;DHT22;17164;48.590;11.410;2023-08-24T03:46:58;18.30;99.90
30371;DHT22;17164;48.590;11.410;2023-08-24T03:49:23;18.30;99.90
30371;DHT22;17164;48.590;11.410;2023-08-24T03:51:50;18.30;99.90
30371;DHT22;17164;48.590;11.410;2023-08-24T03:54:15;18.30;99.90
30371;DHT22;17164;48.590;11.410;2023-08-24T03:56:41;18.20;99.90
30371;DHT22;17164;48.590;11.410;2023-08-24T03:59:06;18.30;99.90
30371;DHT22;17164;48.590;11.410;2023-08-24T04:01:32;18.20;99.90
30371;DHT22;17164;48.590;11.410;2023-08-24T04:03:58;18.20;99.90
30371;DHT22;17164;48.590;11.410;2023-08-24T04:06:24;18.20;99.90
30371;DHT22;17164;48.590;11.410;2023-08-24T04:08:49;18.20;99.90
30371;DHT22;17164;48.590;11.410;2023-08-24T04:11:15;18.20;99.90
30371;DHT22;17164;48.590;11.410;2023-08-24T04:13:40;18.20;99.90
30371;DHT22;17164;48.590;11.410;2023-08-24T04:16:06;18.20;99.90
30371;DHT22;17164;48.590;11.410;2023-08-24T04:18:31;18.20;99.90
30371;DHT22;17164;48.590;11.410;2023-08-24T04:20:57;18.20;99.90
30371;DHT22;17164;48.590;11.410;2023-08-24T04:23:26;18.20;99.90
30371;DHT22;17164;48.590;11.410;2023-08-24T04:25:52;18.10;99.90
30371;DHT22;17164;48.590;11.410;2023-08-24T04:28:18;18.10;99.90
30371;DHT22;17164;48.590;11.410;2023-08-24T04:30:51;18.10;99.90
30371;DHT22;17164;48.590;11.410;2023-08-24T04:33:17;18.10;99.90
30371;DHT22;17164;48.590;11.410;2023-08-24T04:35:42;18.00;99.90
30371;DHT22;17164;48.590;11.410;2023-08-24T04:38:08;18.10;99.90
30371;DHT22;17164;48.590;11.410;2023-08-24T04:40:52;18.00;99.90
30371;DHT22;17164;48.590;11.410;2023-08-24T04:43:19;18.00;99.90
30371;DHT22;17164;48.590;11.410;2023-08-24T04:45:47;17.90;99.90
30371;DHT22;17164;48.590;11.410;2023-08-24T04:48:14;18.00;99.90
30371;DHT22;17164;48.590;11.410;2023-08-24T04:50:41;18.00;99.90
30371;DHT22;17164;48.590;11.410;2023-08-24T04:53:07;18.00;99.90
30371;DHT22;17164;48.590;11.410;2023-08-24T04:55:33;18.00;99.90
30371;DHT22;17164;48.590;11.410;2023-08-24T04:57:58;18.00;99.90
30371;DHT22;17164;48.590;11.410;2023-08-24T05:00:24;18.00;99.90
30371;DHT22;17164;48.590;11.410;2023-08-24T05:02:49;18.10;99.90
30371;DHT22;17164;48.590;11.410;2023-08-24T05:05:15;18.10;99.90
30371;DHT22;17164;48.590;11.410;2023-08-24T05:07:41;18.10;99.90
30371;DHT22;17164;48.590;11.410;2023-08-24T05:10:07;18.10;99.90
30371;DHT22;17164;48.590;11.410;2023-08-24T05:12:33;18.20;99.90
30371;DHT22;17164;48.590;11.410;2023-08-24T05:15:02;18.20;99.90
30371;DHT22;17164;48.590;11.410;2023-08-24T05:17:28;18.30;99.90
30371;DHT22;17164;48.590;11.410;2023-08-24T05:19:54;18.30;99.90
30371;DHT22;17164;48.590;11.410;2023-08-24T05:22:20;18.40;99.90
30371;DHT22;17164;48.590;11.410;2023-08-24T05:24:46;18.40;99.90
30371;DHT22;17164;48.590;11.410;2023-08-24T05:27:12;18.40;99.90
30371;DHT22;17164;48.590;11.410;2023-08-24T05:29:38;18.40;99.90
30371;DHT22;17164;48.590;11.410;2023-08-24T05:32:03;18.40;99.90
30371;DHT22;17164;48.590;11.410;2023-08-24T05:34:29;18.50;99.90
30371;DHT22;17164;48.590;11.410;2023-08-24T05:36:54;18.50;99.90
30371;DHT22;17164;48.590;11.410;2023-08-24T05:39:20;18.60;99.90
30371;DHT22;17164;48.590;11.410;2023-08-24T05:41:46;18.60;99.90
30371;DHT22;17164;48.590;11.410;2023-08-24T05:44:11;18.70;99.90
30371;DHT22;17164;48.590;11.410;2023-08-24T05:46:37;18.70;99.90
30371;DHT22;17164;48.590;11.410;2023-08-24T05:49:02;18.80;99.90
30371;DHT22;17164;48.590;11.410;2023-08-24T05:51:28;18.90;99.90
30371;DHT22;17164;48.590;11.410;2023-08-24T05:53:54;18.90;99.90
30371;DHT22;17164;48.590;11.410;2023-08-24T05:56:23;19.00;99.90
30371;DHT22;17164;48.590;11.410;2023-08-24T05:58:49;19.10;99.90
30371;DHT22;17164;48.590;11.410;2023-08-24T06:01:15;19.10;99.90
30371;DHT22;17164;48.590;11.410;2023-08-24T06:03:41;19.20;99.90
30371;DHT22;17164;48.590;11.410;2023-08-24T06:06:06;19.30;99.90
30371;DHT22;17164;48.590;11.410;2023-08-24T06:08:34;19.40;99.90
30371;DHT22;17164;48.590;11.410;2023-08-24T06:11:00;19.40;99.90
30371;DHT22;17164;48.590;11.410;2023-08-24T06:13:26;19.50;99.90
30371;DHT22;17164;48.590;11.410;2023-08-24T06:15:52;19.60;99.90
30371;DHT22;17164;48.590;11.410;2023-08-24T06:18:17;19.60;99.90
30371;DHT22;17164;48.590;11.410;2023-08-24T06:20:43;19.70;99.90
30371;DHT22;17164;48.590;11.410;2023-08-24T06:23:09;19.90;99.90
30371;DHT22;17164;48.590;11.410;2023-08-24T06:25:35;19.90;99.90
30371;DHT22;17164;48.590;11.410;2023-08-24T06:28:01;20.00;99.90
30371;DHT22;17164;48.590;11.410;2023-08-24T06:30:29;20.10;99.90
30371;DHT22;17164;48.590;11.410;2023-08-24T06:32:58;20.20;99.90
30371;DHT22;17164;48.590;11.410;2023-08-24T06:35:24;20.30;99.90
30371;DHT22;17164;48.590;11.410;2023-08-24T06:37:49;20.40;99.90
30371;DHT22;17164;48.590;11.410;2023-08-24T06:40:15;20.50;99.90
30371;DHT22;17164;48.590;11.410;2023-08-24T06:42:42;20.60;99.90
30371;DHT22;17164;48.590;11.410;2023-08-24T06:45:08;20.80;99.90
30371;DHT22;17164;48.590;11.410;2023-08-24T06:47:36;20.90;99.90
30371;DHT22;17164;48.590;11.410;2023-08-24T06:50:01;21.00;99.90
30371;DHT22;17164;48.590;11.410;2023-08-24T06:52:27;21.20;99.90
30371;DHT22;17164;48.590;11.410;2023-08-24T06:54:53;21.30;99.90
30371;DHT22;17164;48.590;11.410;2023-08-24T06:57:21;21.40;99.90
30371;DHT22;17164;48.590;11.410;2023-08-24T06:59:47;21.60;99.90
30371;DHT22;17164;48.590;11.410;2023-08-24T07:02:12;21.70;99.90
30371;DHT22;17164;48.590;11.410;2023-08-24T07:04:38;21.80;99.90
30371;DHT22;17164;48.590;11.410;2023-08-24T07:07:08;21.80;99.90
30371;DHT22;17164;48.590;11.410;2023-08-24T07:09:34;21.90;99.90
30371;DHT22;17164;48.590;11.410;2023-08-24T07:12:04;21.90;99.90
30371;DHT22;17164;48.590;11.410;2023-08-24T07:14:32;22.00;99.90
30371;DHT22;17164;48.590;11.410;2023-08-24T07:16:58;22.00;99.90
30371;DHT22;17164;48.590;11.410;2023-08-24T07:19:24;22.10;99.90
30371;DHT22;17164;48.590;11.410;2023-08-24T07:21:49;22.20;99.90
30371;DHT22;17164;48.590;11.410;2023-08-24T07:24:16;22.20;99.90
30371;DHT22;17164;48.590;11.410;2023-08-24T07:26:44;22.40;99.90
30371;DHT22;17164;48.590;11.410;2023-08-24T07:29:11;22.50;99.90
30371;DHT22;17164;48.590;11.410;2023-08-24T07:31:36;22.60;99.90
30371;DHT22;17164;48.590;11.410;2023-08-24T07:34:03;22.70;99.90
30371;DHT22;17164;48.590;11.410;2023-08-24T07:36:29;22.80;99.90
30371;DHT22;17164;48.590;11.410;2023-08-24T07:38:55;22.90;99.90
30371;DHT22;17164;48.590;11.410;2023-08-24T07:41:21;23.00;99.90
30371;DHT22;17164;48.590;11.410;2023-08-24T07:43:47;23.20;99.90
30371;DHT22;17164;48.590;11.410;2023-08-24T07:46:12;23.30;99.90
30371;DHT22;17164;48.590;11.410;2023-08-24T07:48:38;23.40;99.90
30371;DHT22;17164;48.590;11.410;2023-08-24T07:51:03;23.50;99.90
30371;DHT22;17164;48.590;11.410;2023-08-24T07:53:29;23.60;99.90
30371;DHT22;17164;48.590;11.410;2023-08-24T07:55:55;23.70;99.90
30371;DHT22;17164;48.590;11.410;2023-08-24T07:58:23;23.90;99.90
30371;DHT22;17164;48.590;11.410;2023-08-24T08:00:52;24.00;99.90
30371;DHT22;17164;48.590;11.410;2023-08-24T08:03:18;24.00;99.90
30371;DHT22;17164;48.590;11.410;2023-08-24T08:05:45;24.20;99.90
30371;DHT22;17164;48.590;11.410;2023-08-24T08:08:11;24.30;99.90
30371;DHT22;17164;48.590;11.410;2023-08-24T08:10:36;24.40;99.90
30371;DHT22;17164;48.590;11.410;2023-08-24T08:13:02;24.50;99.90
30371;DHT22;17164;48.590;11.410;2023-08-24T08:15:27;24.60;99.90
30371;DHT22;17164;48.590;11.410;2023-08-24T08:17:53;24.80;99.90
30371;DHT22;17164;48.590;11.410;2023-08-24T08:20:19;24.90;99.90
30371;DHT22;17164;48.590;11.410;2023-08-24T08:22:44;25.00;99.90
30371;DHT22;17164;48.590;11.410;2023-08-24T08:25:10;25.10;99.90
30371;DHT22;17164;48.590;11.410;2023-08-24T08:27:37;25.20;99.90
30371;DHT22;17164;48.590;11.410;2023-08-24T08:30:03;25.30;99.90
30371;DHT22;17164;48.590;11.410;2023-08-24T08:32:32;25.50;99.90
30371;DHT22;17164;48.590;11.410;2023-08-24T08:34:57;25.60;99.90
30371;DHT22;17164;48.590;11.410;2023-08-24T08:37:25;25.60;99.90
30371;DHT22;17164;48.590;11.410;2023-08-24T08:39:51;25.70;99.90
30371;DHT22;17164;48.590;11.410;2023-08-24T08:42:16;25.80;99.90
30371;DHT22;17164;48.590;11.410;2023-08-24T08:44:45;25.80;99.90
30371;DHT22;17164;48.590;11.410;2023-08-24T08:47:14;25.90;99.90
30371;DHT22;17164;48.590;11.410;2023-08-24T08:49:45;26.00;99.80
30371;DHT22;17164;48.590;11.410;2023-08-24T08:52:12;26.10;99.90
30371;DHT22;17164;48.590;11.410;2023-08-24T08:54:38;26.20;99.00
30371;DHT22;17164;48.590;11.410;2023-08-24T08:57:04;26.30;99.10
30371;DHT22;17164;48.590;11.410;2023-08-24T08:59:30;26.40;99.10
30371;DHT22;17164;48.590;11.410;2023-08-24T09:01:58;26.40;99.20
30371;DHT22;17164;48.590;11.410;2023-08-24T09:04:31;26.40;99.00
30371;DHT22;17164;48.590;11.410;2023-08-24T09:06:57;26.40;97.80
30371;DHT22;17164;48.590;11.410;2023-08-24T09:09:24;26.40;97.80
30371;DHT22;17164;48.590;11.410;2023-08-24T09:11:50;26.50;98.10
30371;DHT22;17164;48.590;11.410;2023-08-24T09:14:16;26.60;98.20
30371;DHT22;17164;48.590;11.410;2023-08-24T09:16:42;26.80;98.30
30371;DHT22;17164;48.590;11.410;2023-08-24T09:19:11;26.90;98.30
30371;DHT22;17164;48.590;11.410;2023-08-24T09:21:37;27.00;98.00
30371;DHT22;17164;48.590;11.410;2023-08-24T09:24:04;27.20;97.70
30371;DHT22;17164;48.590;11.410;2023-08-24T09:26:37;27.40;96.60
30371;DHT22;17164;48.590;11.410;2023-08-24T09:29:15;27.50;97.20
30371;DHT22;17164;48.590;11.410;2023-08-24T09:31:42;27.60;97.50
30371;DHT22;17164;48.590;11.410;2023-08-24T09:34:10;27.70;97.00
30371;DHT22;17164;48.590;11.410;2023-08-24T09:36:37;27.90;96.20
30371;DHT22;17164;48.590;11.410;2023-08-24T09:39:04;28.00;96.40
30371;DHT22;17164;48.590;11.410;2023-08-24T09:41:41;28.00;96.30
30371;DHT22;17164;48.590;11.410;2023-08-24T09:44:07;28.10;96.10
30371;DHT22;17164;48.590;11.410;2023-08-24T09:46:40;28.20;96.30
30371;DHT22;17164;48.590;11.410;2023-08-24T09:49:10;28.30;95.30
30371;DHT22;17164;48.590;11.410;2023-08-24T09:51:38;28.40;95.70
30371;DHT22;17164;48.590;11.410;2023-08-24T09:54:06;28.50;95.50
30371;DHT22;17164;48.590;11.410;2023-08-24T09:56:35;28.60;94.40
30371;DHT22;17164;48.590;11.410;2023-08-24T09:59:10;28.60;93.50
30371;DHT22;17164;48.590;11.410;2023-08-24T10:01:37;28.70;94.10
30371;DHT22;17164;48.590;11.410;2023-08-24T10:04:05;28.70;94.00
30371;DHT22;17164;48.590;11.410;2023-08-24T10:06:32;28.80;93.90
30371;DHT22;17164;48.590;11.410;2023-08-24T10:09:02;28.90;93.00
30371;DHT22;17164;48.590;11.410;2023-08-24T10:11:34;28.90;93.20
30371;DHT22;17164;48.590;11.410;2023-08-24T10:14:21;29.00;93.60
30371;DHT22;17164;48.590;11.410;2023-08-24T10:16:49;29.10;94.20
30371;DHT22;17164;48.590;11.410;2023-08-24T10:19:16;29.20;93.50
30371;DHT22;17164;48.590;11.410;2023-08-24T10:21:43;29.30;93.90
30371;DHT22;17164;48.590;11.410;2023-08-24T10:24:09;29.30;93.90
30371;DHT22;17164;48.590;11.410;2023-08-24T10:26:38;29.40;93.30
30371;DHT22;17164;48.590;11.410;2023-08-24T10:29:06;29.50;93.80
30371;DHT22;17164;48.590;11.410;2023-08-24T10:31:32;29.50;93.10
30371;DHT22;17164;48.590;11.410;2023-08-24T10:33:59;29.60;93.60
30371;DHT22;17164;48.590;11.410;2023-08-24T10:36:25;29.70;93.40
30371;DHT22;17164;48.590;11.410;2023-08-24T10:38:55;29.70;92.00
30371;DHT22;17164;48.590;11.410;2023-08-24T10:41:26;29.80;93.10
30371;DHT22;17164;48.590;11.410;2023-08-24T10:43:52;29.80;93.40
30371;DHT22;17164;48.590;11.410;2023-08-24T10:46:34;29.90;92.10
30371;DHT22;17164;48.590;11.410;2023-08-24T10:49:03;30.00;92.70
30371;DHT22;17164;48.590;11.410;2023-08-24T10:51:29;30.00;92.20
30371;DHT22;17164;48.590;11.410;2023-08-24T10:53:57;30.10;92.90
30371;DHT22;17164;48.590;11.410;2023-08-24T10:56:36;30.20;93.00
30371;DHT22;17164;48.590;11.410;2023-08-24T11:02:01;30.40;92.50
30371;DHT22;17164;48.590;11.410;2023-08-24T11:04:27;30.40;92.80
30371;DHT22;17164;48.590;11.410;2023-08-24T11:06:59;30.50;91.80
30371;DHT22;17164;48.590;11.410;2023-08-24T11:09:45;30.60;92.40
30371;DHT22;17164;48.590;11.410;2023-08-24T11:12:12;30.60;90.90
30371;DHT22;17164;48.590;11.410;2023-08-24T11:14:49;30.70;91.70
30371;DHT22;17164;48.590;11.410;2023-08-24T11:17:20;30.80;92.30
30371;DHT22;17164;48.590;11.410;2023-08-24T11:19:53;30.90;91.90
30371;DHT22;17164;48.590;11.410;2023-08-24T11:22:20;31.00;91.90
30371;DHT22;17164;48.590;11.410;2023-08-24T11:24:46;31.10;91.40
30371;DHT22;17164;48.590;11.410;2023-08-24T11:27:12;31.10;90.90
30371;DHT22;17164;48.590;11.410;2023-08-24T11:29:38;31.20;90.90
30371;DHT22;17164;48.590;11.410;2023-08-24T11:32:04;31.20;89.20
30371;DHT22;17164;48.590;11.410;2023-08-24T11:34:30;31.30;87.80
30371;DHT22;17164;48.590;11.410;2023-08-24T11:36:56;31.30;88.00
30371;DHT22;17164;48.590;11.410;2023-08-24T11:39:22;31.30;89.50
30371;DHT22;17164;48.590;11.410;2023-08-24T11:42:04;31.30;88.00
30371;DHT22;17164;48.590;11.410;2023-08-24T11:44:44;31.40;87.40
30371;DHT22;17164;48.590;11.410;2023-08-24T11:47:11;31.50;87.60
30371;DHT22;17164;48.590;11.410;2023-08-24T11:49:37;31.50;87.50
30371;DHT22;17164;48.590;11.410;2023-08-24T11:52:03;31.60;87.70
30371;DHT22;17164;48.590;11.410;2023-08-24T11:54:32;31.60;85.70
30371;DHT22;17164;48.590;11.410;2023-08-24T11:56:58;31.60;83.90
30371;DHT22;17164;48.590;11.410;2023-08-24T11:59:24;31.70;85.80
30371;DHT22;17164;48.590;11.410;2023-08-24T12:01:51;31.80;84.60
30371;DHT22;17164;48.590;11.410;2023-08-24T12:04:18;31.90;79.40
30371;DHT22;17164;48.590;11.410;2023-08-24T12:06:43;31.90;80.80
30371;DHT22;17164;48.590;11.410;2023-08-24T12:09:09;32.00;81.80
30371;DHT22;17164;48.590;11.410;2023-08-24T12:11:36;32.10;83.10
30371;DHT22;17164;48.590;11.410;2023-08-24T12:14:02;32.20;82.50
30371;DHT22;17164;48.590;11.410;2023-08-24T12:16:32;32.20;82.80
30371;DHT22;17164;48.590;11.410;2023-08-24T12:18:59;32.30;76.70
30371;DHT22;17164;48.590;11.410;2023-08-24T12:21:26;32.30;77.30
30371;DHT22;17164;48.590;11.410;2023-08-24T12:24:02;32.30;76.80
30371;DHT22;17164;48.590;11.410;2023-08-24T12:26:34;32.40;77.40
30371;DHT22;17164;48.590;11.410;2023-08-24T12:29:04;32.40;76.30
30371;DHT22;17164;48.590;11.410;2023-08-24T12:31:31;32.40;77.90
30371;DHT22;17164;48.590;11.410;2023-08-24T12:34:05;32.40;78.30
30371;DHT22;17164;48.590;11.410;2023-08-24T12:36:32;32.30;79.80
30371;DHT22;17164;48.590;11.410;2023-08-24T12:38:58;32.30;76.00
30371;DHT22;17164;48.590;11.410;2023-08-24T12:41:24;32.30;74.90
30371;DHT22;17164;48.590;11.410;2023-08-24T12:43:51;32.40;73.50
30371;DHT22;17164;48.590;11.410;2023-08-24T12:46:17;32.40;70.80
30371;DHT22;17164;48.590;11.410;2023-08-24T12:48:43;32.40;72.10
30371;DHT22;17164;48.590;11.410;2023-08-24T12:51:08;32.50;74.20
30371;DHT22;17164;48.590;11.410;2023-08-24T12:53:34;32.60;74.70
30371;DHT22;17164;48.590;11.410;2023-08-24T12:56:00;32.60;75.10
30371;DHT22;17164;48.590;11.410;2023-08-24T12:58:25;32.60;72.80
30371;DHT22;17164;48.590;11.410;2023-08-24T13:00:51;32.60;72.50
30371;DHT22;17164;48.590;11.410;2023-08-24T13:03:16;32.60;71.00
30371;DHT22;17164;48.590;11.410;2023-08-24T13:05:42;32.70;71.40
30371;DHT22;17164;48.590;11.410;2023-08-24T13:08:07;32.70;71.00
30371;DHT22;17164;48.590;11.410;2023-08-24T13:10:33;32.80;71.80
30371;DHT22;17164;48.590;11.410;2023-08-24T13:12:59;32.80;70.20
30371;DHT22;17164;48.590;11.410;2023-08-24T13:15:25;32.90;71.30
30371;DHT22;17164;48.590;11.410;2023-08-24T13:17:51;33.00;72.50
30371;DHT22;17164;48.590;11.410;2023-08-24T13:20:17;33.10;72.20
30371;DHT22;17164;48.590;11.410;2023-08-24T13:22:42;33.10;70.70
30371;DHT22;17164;48.590;11.410;2023-08-24T13:25:08;33.20;70.20
30371;DHT22;17164;48.590;11.410;2023-08-24T13:27:34;33.30;67.60
30371;DHT22;17164;48.590;11.410;2023-08-24T13:30:00;33.30;67.50
30371;DHT22;17164;48.590;11.410;2023-08-24T13:32:26;33.30;67.20
30371;DHT22;17164;48.590;11.410;2023-08-24T13:34:52;33.40;68.00
30371;DHT22;17164;48.590;11.410;2023-08-24T13:37:18;33.40;67.30
30371;DHT22;17164;48.590;11.410;2023-08-24T13:39:44;33.50;65.90
30371;DHT22;17164;48.590;11.410;2023-08-24T13:42:09;33.40;67.50
30371;DHT22;17164;48.590;11.410;2023-08-24T13:44:35;33.30;66.90
30371;DHT22;17164;48.590;11.410;2023-08-24T13:47:01;33.20;68.30
30371;DHT22;17164;48.590;11.410;2023-08-24T13:49:26;33.20;70.50
30371;DHT22;17164;48.590;11.410;2023-08-24T13:51:52;33.20;69.70
30371;DHT22;17164;48.590;11.410;2023-08-24T13:54:19;33.20;67.70
30371;DHT22;17164;48.590;11.410;2023-08-24T13:56:47;33.30;67.80
30371;DHT22;17164;48.590;11.410;2023-08-24T13:59:13;33.40;68.50
30371;DHT22;17164;48.590;11.410;2023-08-24T14:01:40;33.50;68.10
30371;DHT22;17164;48.590;11.410;2023-08-24T14:04:06;33.60;67.30
30371;DHT22;17164;48.590;11.410;2023-08-24T14:06:32;33.70;67.50
30371;DHT22;17164;48.590;11.410;2023-08-24T14:09:00;33.70;67.30
30371;DHT22;17164;48.590;11.410;2023-08-24T14:11:27;33.80;66.30
30371;DHT22;17164;48.590;11.410;2023-08-24T14:13:53;33.80;67.00
30371;DHT22;17164;48.590;11.410;2023-08-24T14:16:18;33.80;66.40
30371;DHT22;17164;48.590;11.410;2023-08-24T14:18:45;33.70;66.90
30371;DHT22;17164;48.590;11.410;2023-08-24T14:21:11;33.70;67.70
30371;DHT22;17164;48.590;11.410;2023-08-24T14:23:37;33.70;65.40
30371;DHT22;17164;48.590;11.410;2023-08-24T14:26:02;33.90;65.90
30371;DHT22;17164;48.590;11.410;2023-08-24T14:28:51;34.00;64.80
30371;DHT22;17164;48.590;11.410;2023-08-24T14:31:19;34.10;65.60
30371;DHT22;17164;48.590;11.410;2023-08-24T14:33:45;34.20;64.90
30371;DHT22;17164;48.590;11.410;2023-08-24T14:36:11;34.20;66.00
30371;DHT22;17164;48.590;11.410;2023-08-24T14:38:40;34.10;65.70
30371;DHT22;17164;48.590;11.410;2023-08-24T14:41:10;34.00;66.80
30371;DHT22;17164;48.590;11.410;2023-08-24T14:43:40;33.90;67.10
30371;DHT22;17164;48.590;11.410;2023-08-24T14:46:06;33.80;67.20
30371;DHT22;17164;48.590;11.410;2023-08-24T14:48:32;33.90;68.70
30371;DHT22;17164;48.590;11.410;2023-08-24T14:50:58;34.00;67.40
30371;DHT22;17164;48.590;11.410;2023-08-24T14:53:25;34.20;65.70
30371;DHT22;17164;48.590;11.410;2023-08-24T14:55:50;34.30;64.20
30371;DHT22;17164;48.590;11.410;2023-08-24T14:58:17;34.40;65.40
30371;DHT22;17164;48.590;11.410;2023-08-24T15:00:43;34.50;64.50
30371;DHT22;17164;48.590;11.410;2023-08-24T15:03:11;34.50;60.40
30371;DHT22;17164;48.590;11.410;2023-08-24T15:05:55;34.50;59.50
30371;DHT22;17164;48.590;11.410;2023-08-24T15:08:20;34.60;60.10
30371;DHT22;17164;48.590;11.410;2023-08-24T15:10:48;34.70;58.80
30371;DHT22;17164;48.590;11.410;2023-08-24T15:13:14;35.00;58.20
30371;DHT22;17164;48.590;11.410;2023-08-24T15:15:39;35.30;58.10
30371;DHT22;17164;48.590;11.410;2023-08-24T15:18:05;35.70;57.60
30371;DHT22;17164;48.590;11.410;2023-08-24T15:20:31;36.10;57.30